ADDS METAR Data INFO
IDs: Format: Raw Decoded Include TAF

Data at: 0315 UTC 20 Jul 2018

KMGM 200253Z 10004KT 10SM CLR 25/24 A2995 RMK AO2 SLPNO 60001 T02500244 51010
KMGM 200153Z 05005KT 10SM CLR 25/24 A2994 RMK AO2 SLP135 T02500239
KMGM 200053Z AUTO 36004KT 10SM SCT100 26/24 A2993 RMK AO2 RAE02 SLP132 P0001 T02610244
KMGM 192353Z AUTO 05003KT 10SM -RA BKN110 26/24 A2992 RMK AO2 LTG DSNT S RAB2256 SLP128 P0001 60001 T02560244 10322 20256 53008
KMGM 192253Z AUTO 10003KT 10SM CLR 27/23 A2990 RMK AO2 LTG DSNT SW AND W TSB08E23B26E41 SLP122 T02720233
KMGM 192219Z AUTO 00000KT 10SM TS SCT020 27/23 A2991 RMK AO2 LTG DSNT S-NW TSB08 T02720233
KMGM 192210Z AUTO 14007KT 10SM TS BKN020 BKN080 27/23 A2991 RMK AO2 LTG DSNT ALQDS TSB08 T02720233
KMGM 192153Z AUTO 10008KT 10SM VCTS SCT080 28/23 A2990 RMK AO2 LTG DSNT ALQDS SLP123 T02830233
KMGM 192113Z AUTO 06012KT 10SM VCTS SCT070 30/23 A2990 RMK AO2 LTG DSNT ALQDS T03000228
KMGM 192053Z AUTO 05012KT 10SM SCT070 30/23 A2990 RMK AO2 LTG DSNT ALQDS SLP120 T03000228 58001
KMGM 191953Z 36010G16KT 10SM CLR 31/24 A2991 RMK AO2 LTG DSNT N-SE TSB16E34 SLP123 T03060239
KMGM 191948Z 34009KT 10SM CLR 31/23 A2991 RMK AO2 LTG DSNT N-E TSB16E34
KMGM 191940Z 33013KT 10SM VCTS CLR 31/24 A2991 RMK AO2 LTG DSNT NE AND E TSB16E34 T03110239
KMGM 191922Z 34012KT 10SM TS FEW035 SCT050 32/23 A2990 RMK AO2 LTG DSNT N-E TSB16 T03170233
KMGM 191853Z VRB04KT 10SM VCTS BKN032 32/24 A2990 RMK AO2 LTG DSNT N AND NE SLP122 T03220244
KMGM 191849Z 25006KT 10SM VCTS SCT032 33/24 A2990 RMK AO2 LTG DSNT NE
KMGM 191753Z 28004KT 10SM SCT031 31/24 A2992 RMK AO2 SLP127 T03110244 10322 20233 58014
KMGM 191653Z 00000KT 10SM CLR 32/24 A2995 RMK AO2 SLP137 T03170244
KMGM 191553Z 32006KT 10SM CLR 30/24 A2996 RMK AO2 SLP141 T03000244 $
KMGM 191453Z A2995 RMK AO2 SLPNO 52003 $
KMGM 191353Z 31004KT 10SM CLR 27/24 A2995 RMK AO2 SLP139 T02720239
KMGM 191253Z 24003KT 10SM FEW005 25/23 A2995 RMK AO2 SLP139 T02500233
KMGM 191221Z 22003KT 8SM FEW003 24/23 A2995 RMK AO2 T02390228
KMGM 191153Z 00000KT 6SM BR CLR 23/23 A2995 RMK AO2 SLP137 70038 T02330228 10233 20228 53010
KMGM 191053Z AUTO 00000KT 6SM BR SCT120 23/22 A2993 RMK AO2 SLP131 T02280222
KMGM 190953Z AUTO 00000KT 7SM CLR 23/22 A2991 RMK AO2 SLP127 T02280222
KMGM 190853Z AUTO 24005KT 6SM BR CLR 23/22 A2992 RMK AO2 SLP127 T02280222 53000
KMGM 190753Z AUTO 22003KT 6SM BR CLR 23/23 A2991 RMK AO2 SLP125 T02280228
KMGM 190653Z AUTO 00000KT 10SM CLR 23/23 A2991 RMK AO2 SLP124 T02330228
KMGM 190553Z AUTO 00000KT 9SM CLR 23/23 A2991 RMK AO2 SLP127 60000 T02330228 10256 20233 403390233 58007
KMGM 190453Z AUTO 00000KT 10SM CLR 24/23 A2993 RMK AO2 SLP132 T02390228
KMGM 190353Z 00000KT 10SM CLR 24/23 A2993 RMK AO2 SLP133 T02390228
KMGM 190253Z 00000KT 10SM CLR 24/23 A2994 RMK AO2 SLP134 60000 T02440228 51010
KMGM 190153Z 23005KT 10SM BKN120 24/23 A2993 RMK AO2 RAB07E38 SLP131 P0000 T02440233
KMGM 190053Z 24005KT 10SM BKN110 25/24 A2992 RMK AO2 LTG DSNT SW RAB18E31 SLP129 P0000 T02500239
KMGM 182353Z 00000KT 10SM FEW002 26/24 A2991 RMK AO2 LTG DSNT S-NW TSE01 SLP125 60038 T02560239 10339 20244 55002
KMGM 182345Z 00000KT 9SM FEW003 25/24 A2991 RMK AO2 LTG DSNT S-NW TSE01 T02500239
KMGM 182307Z 30003KT 10SM BKN090 BKN110 26/24 A2990 RMK AO2 LTG DSNT NW TSE01 T02560244
KMGM 182253Z 00000KT 10SM TS SCT090 26/24 A2990 RMK AO2 LTG DSNT N AND S AND NW RAE02 TSE16B46 SLP123 P0000 T02610239
KMGM 182222Z 10004KT 10SM VCTS FEW043 26/24 A2991 RMK AO2 LTG DSNT N AND NW RAE02 TSE16 P0000 T02560239
KMGM 182153Z 02004KT 10SM -TSRA FEW044 SCT050 BKN090 26/23 A2992 RMK AO2 LTG DSNT NW-NE RAE09B38 TSB29 SLP127 P0006 T02610233
KMGM 182135Z 36005KT 10SM TS FEW070 SCT090 BKN110 27/24 A2992 RMK AO2 LTG DSNT NW-NE RAE09 TSB29 P0006 T02670239
KMGM 182104Z 05005KT 9SM -RA BKN033 BKN070 OVC085 26/23 A2993 RMK AO2 LTG DSNT NE-SE P0006 T02560228
KMGM 182056Z 08007KT 3SM +RA BR BKN029 BKN039 OVC055 25/23 A2993 RMK AO2 LTG DSNT NE-SE P0005 T02500228
KMGM 182053Z 07010G24KT 1 3/4SM +RA BKN022 BKN039 OVC055 25/22 A2993 RMK AO2 PK WND 05026/2039 WSHFT 2034 VIS 1V4 LTG DSNT NE-SE RAB30 SLP131 P0032 60032 T02500222 55012
KMGM 182049Z 09016G24KT 1 1/4SM +RA BR BKN013 BKN037 OVC070 25/23 A2992 RMK AO2 PK WND 05026/2039 WSHFT 2034 LTG DSNT NE-SE RAB30 P0030
KMGM 182046Z 09020G26KT 3/4SM +RA BR BKN009 BKN037 OVC049 25/23 A2992 RMK AO2 PK WND 05026/2039 LTG DSNT NE-SE RAB30 P0026 T02500228
KMGM 182040Z 06020G26KT 3/4SM VCTS +RA BR FEW009 BKN038 OVC085 24/23 A2992 RMK AO2 PK WND 05026/2039 LTG DSNT NE AND E RAB30 P0009 T02440228
KMGM 182038Z 04017G22KT 1SM VCTS +RA BR FEW011 BKN038 OVC060 24/23 A2992 RMK AO2 LTG DSNT NE AND E RAB30 P0004 T02440228
KMGM 182034Z 04014G19KT 2 1/2SM VCTS +RA BR BKN038 OVC044 25/23 A2993 RMK AO2 LTG DSNT NE AND E RAB30 P0001 T02500228
KMGM 181953Z 30006KT 10SM FEW042 33/24 A2992 RMK AO2 LTG DSNT E SLP129 T03280239
KMGM 181853Z 25006KT 10SM BKN030 33/24 A2994 RMK AO2 LTG DSNT NE SLP136 T03280244
KMGM 181753Z VRB03KT 10SM BKN031 31/24 A2996 RMK AO2 SLP143 T03110239 10322 20239 58013
KMGM 181700Z 31003KT 10SM BKN023 BKN028 32/24 A2998 RMK AO2 T03170244
KMGM 181653Z VRB03KT 10SM SCT023 SCT028 31/24 A2998 RMK AO2 SLP150 T03110244
KMGM 181646Z 33007KT 10SM BKN023 BKN028 31/24 A2999 RMK AO2 T03060239
KMGM 181633Z 00000KT 10SM SCT021 31/24 A2999 RMK AO2 T03110244
KMGM 181607Z VRB03KT 10SM BKN018 29/24 A2999 RMK AO2 T02940244
KMGM 181553Z 00000KT 10SM FEW016 30/24 A2999 RMK AO2 SLP152 T03000244
KMGM 181546Z 00000KT 10SM FEW017 29/24 A2999 RMK AO2 T02890244
KMGM 181521Z 26004KT 10SM FEW012 BKN019 28/24 A3000 RMK AO2 T02830239